Accueil
METAR-TAF:

METAR-TAF

Aéroports :

Farnborough, Angleterre

latitude: 51-17N, longitude: 000-46W, altitude: 65 m

Observation

Le bulletin a été fait il y a 21 minutes, à 01:50 UTC
Vent 10 kt de nord/nord-est, variant entre nord et est/nord-est
Température 5°C
Humidité 87%
Pression 1023 hPa
Visibilité 10 km ou plus

METAR: EGLF 030150Z AUTO 03010KT 350V060 9999 BKN016/// BKN022/// BKN029/// 05/03 Q1023

Heure: 02:11 (02:11 UTC)

Prévision

Le bulletin a été fait il y a 6 heures et 41 minutes, à 19:30 UTC
Prévision valable du 02 à 19 UTC au 02 à 22 UTC
Vent 5 kt de nord/nord-est
Visibilité 10 km ou plus
Quelques nuages à une hauteur de 1500 ft
Nuages épars à une hauteur de 2500 ft
Probabilité 30% :
Temporairement
du 02 à 19 UTC au 02 à 22 UTC
Visibilité: 9000 m
Nuages fragmentés à une hauteur de 1400 ft
faibles averses de pluie

TAF: EGLF 021930Z 0219/0222 03005KT 9999 FEW015 SCT025 PROB30 TEMPO 0219/0222 9000 -SHRA BKN014

Observations et prévisions météorologiques de plus de 4000 aéroports (messages METAR et TAF).

Les stations disponibles sont représentées par des disques jaunes et rouges sur la carte.

Passer la souris dessus pour voir le nom de la station.

Cliquer dessus pour voir les observations et prévisions météorologiques.

Pour changer de carte: cliquez sur les boutons verts avec une croix noire pour zoomer, sur le bouton vert avec un tiret pour effectuer un zoom arrière, ou sur les flèches vertes pour les cartes adjacentes.


METAR-TAF: